sensor_id;sensor_type;location;lat;lon;timestamp;P1;durP1;ratioP1;P2;durP2;ratioP2
16994;SDS011;8614;48.522;9.206;2024-02-26T00:01:05;7.47;;;7.07;;
16994;SDS011;8614;48.522;9.206;2024-02-26T00:03:33;7.70;;;7.30;;
16994;SDS011;8614;48.522;9.206;2024-02-26T00:06:01;7.67;;;7.27;;
16994;SDS011;8614;48.522;9.206;2024-02-26T00:08:28;7.63;;;7.20;;
16994;SDS011;8614;48.522;9.206;2024-02-26T00:10:55;7.60;;;7.20;;
16994;SDS011;8614;48.522;9.206;2024-02-26T00:13:22;7.50;;;7.10;;
16994;SDS011;8614;48.522;9.206;2024-02-26T00:15:48;7.70;;;7.20;;
16994;SDS011;8614;48.522;9.206;2024-02-26T00:18:15;7.87;;;7.40;;
16994;SDS011;8614;48.522;9.206;2024-02-26T00:20:43;7.60;;;7.20;;
16994;SDS011;8614;48.522;9.206;2024-02-26T00:23:10;7.70;;;7.20;;
16994;SDS011;8614;48.522;9.206;2024-02-26T00:25:37;7.70;;;7.30;;
16994;SDS011;8614;48.522;9.206;2024-02-26T00:28:04;7.70;;;7.30;;
16994;SDS011;8614;48.522;9.206;2024-02-26T00:30:31;7.73;;;7.30;;
16994;SDS011;8614;48.522;9.206;2024-02-26T00:32:58;8.27;;;7.77;;
16994;SDS011;8614;48.522;9.206;2024-02-26T00:35:24;8.17;;;7.57;;
16994;SDS011;8614;48.522;9.206;2024-02-26T00:37:53;7.80;;;7.30;;
16994;SDS011;8614;48.522;9.206;2024-02-26T00:40:19;7.90;;;7.40;;
16994;SDS011;8614;48.522;9.206;2024-02-26T00:42:46;7.70;;;7.20;;
16994;SDS011;8614;48.522;9.206;2024-02-26T00:45:13;7.70;;;7.20;;
16994;SDS011;8614;48.522;9.206;2024-02-26T00:47:41;7.93;;;7.40;;
16994;SDS011;8614;48.522;9.206;2024-02-26T00:50:10;7.50;;;7.10;;
16994;SDS011;8614;48.522;9.206;2024-02-26T00:52:37;7.97;;;7.50;;
16994;SDS011;8614;48.522;9.206;2024-02-26T00:55:05;7.87;;;7.40;;
16994;SDS011;8614;48.522;9.206;2024-02-26T00:57:33;7.73;;;7.23;;
16994;SDS011;8614;48.522;9.206;2024-02-26T01:00:00;7.60;;;7.20;;
16994;SDS011;8614;48.522;9.206;2024-02-26T01:02:27;7.63;;;7.13;;
16994;SDS011;8614;48.522;9.206;2024-02-26T01:04:54;7.73;;;7.13;;
16994;SDS011;8614;48.522;9.206;2024-02-26T01:07:20;7.50;;;7.10;;
16994;SDS011;8614;48.522;9.206;2024-02-26T01:09:47;7.67;;;7.27;;
16994;SDS011;8614;48.522;9.206;2024-02-26T01:12:15;7.90;;;7.40;;
16994;SDS011;8614;48.522;9.206;2024-02-26T01:14:42;7.80;;;7.30;;
16994;SDS011;8614;48.522;9.206;2024-02-26T01:17:09;7.63;;;7.23;;
16994;SDS011;8614;48.522;9.206;2024-02-26T01:19:36;7.70;;;7.20;;
16994;SDS011;8614;48.522;9.206;2024-02-26T01:22:03;7.93;;;7.43;;
16994;SDS011;8614;48.522;9.206;2024-02-26T01:24:29;7.77;;;7.27;;
16994;SDS011;8614;48.522;9.206;2024-02-26T01:26:56;7.80;;;7.30;;
16994;SDS011;8614;48.522;9.206;2024-02-26T01:29:24;7.93;;;7.40;;
16994;SDS011;8614;48.522;9.206;2024-02-26T01:31:51;7.73;;;7.23;;
16994;SDS011;8614;48.522;9.206;2024-02-26T01:34:18;7.80;;;7.30;;
16994;SDS011;8614;48.522;9.206;2024-02-26T01:36:45;7.70;;;7.27;;
16994;SDS011;8614;48.522;9.206;2024-02-26T01:39:11;8.13;;;7.63;;
16994;SDS011;8614;48.522;9.206;2024-02-26T01:41:38;8.20;;;7.50;;
16994;SDS011;8614;48.522;9.206;2024-02-26T01:44:06;8.00;;;7.50;;
16994;SDS011;8614;48.522;9.206;2024-02-26T01:46:34;8.10;;;7.60;;
16994;SDS011;8614;48.522;9.206;2024-02-26T01:49:02;7.50;;;7.10;;
16994;SDS011;8614;48.522;9.206;2024-02-26T01:51:29;8.00;;;7.50;;
16994;SDS011;8614;48.522;9.206;2024-02-26T01:53:58;8.00;;;7.50;;
16994;SDS011;8614;48.522;9.206;2024-02-26T01:56:25;7.80;;;7.40;;
16994;SDS011;8614;48.522;9.206;2024-02-26T01:58:55;8.00;;;7.50;;
16994;SDS011;8614;48.522;9.206;2024-02-26T02:01:23;8.10;;;7.60;;
16994;SDS011;8614;48.522;9.206;2024-02-26T02:03:54;8.50;;;8.00;;
16994;SDS011;8614;48.522;9.206;2024-02-26T02:06:24;7.93;;;7.43;;
16994;SDS011;8614;48.522;9.206;2024-02-26T02:08:51;7.87;;;7.37;;
16994;SDS011;8614;48.522;9.206;2024-02-26T02:11:19;8.43;;;7.90;;
16994;SDS011;8614;48.522;9.206;2024-02-26T02:13:45;8.40;;;7.90;;
16994;SDS011;8614;48.522;9.206;2024-02-26T02:16:12;8.47;;;7.90;;
16994;SDS011;8614;48.522;9.206;2024-02-26T02:18:39;8.13;;;7.63;;
16994;SDS011;8614;48.522;9.206;2024-02-26T02:21:08;8.33;;;7.83;;
16994;SDS011;8614;48.522;9.206;2024-02-26T02:23:34;8.00;;;7.50;;
16994;SDS011;8614;48.522;9.206;2024-02-26T02:26:01;8.30;;;7.80;;
16994;SDS011;8614;48.522;9.206;2024-02-26T02:28:28;8.50;;;7.90;;
16994;SDS011;8614;48.522;9.206;2024-02-26T02:30:55;8.23;;;7.73;;
16994;SDS011;8614;48.522;9.206;2024-02-26T02:33:22;8.20;;;7.70;;
16994;SDS011;8614;48.522;9.206;2024-02-26T02:35:50;8.60;;;8.10;;
16994;SDS011;8614;48.522;9.206;2024-02-26T02:38:20;8.33;;;7.83;;
16994;SDS011;8614;48.522;9.206;2024-02-26T02:40:48;8.77;;;8.17;;
16994;SDS011;8614;48.522;9.206;2024-02-26T02:43:15;8.33;;;7.83;;
16994;SDS011;8614;48.522;9.206;2024-02-26T02:45:42;8.53;;;7.93;;
16994;SDS011;8614;48.522;9.206;2024-02-26T02:48:10;8.50;;;8.00;;
16994;SDS011;8614;48.522;9.206;2024-02-26T02:50:37;8.40;;;7.90;;
16994;SDS011;8614;48.522;9.206;2024-02-26T02:53:04;8.53;;;8.03;;
16994;SDS011;8614;48.522;9.206;2024-02-26T02:55:32;8.40;;;7.90;;
16994;SDS011;8614;48.522;9.206;2024-02-26T02:57:59;8.40;;;7.90;;
16994;SDS011;8614;48.522;9.206;2024-02-26T03:00:26;8.40;;;7.90;;
16994;SDS011;8614;48.522;9.206;2024-02-26T03:02:52;8.17;;;7.67;;
16994;SDS011;8614;48.522;9.206;2024-02-26T03:05:19;8.53;;;7.93;;
16994;SDS011;8614;48.522;9.206;2024-02-26T03:07:46;8.00;;;7.50;;
16994;SDS011;8614;48.522;9.206;2024-02-26T03:10:13;8.10;;;7.60;;
16994;SDS011;8614;48.522;9.206;2024-02-26T03:12:41;8.67;;;8.07;;
16994;SDS011;8614;48.522;9.206;2024-02-26T03:15:08;8.80;;;8.30;;
16994;SDS011;8614;48.522;9.206;2024-02-26T03:17:36;8.27;;;7.77;;
16994;SDS011;8614;48.522;9.206;2024-02-26T03:20:04;8.40;;;7.90;;
16994;SDS011;8614;48.522;9.206;2024-02-26T03:22:33;8.40;;;7.90;;
16994;SDS011;8614;48.522;9.206;2024-02-26T03:25:00;8.40;;;7.90;;
16994;SDS011;8614;48.522;9.206;2024-02-26T03:27:27;8.37;;;7.87;;
16994;SDS011;8614;48.522;9.206;2024-02-26T03:29:55;8.20;;;7.70;;
16994;SDS011;8614;48.522;9.206;2024-02-26T03:32:22;8.40;;;7.90;;
16994;SDS011;8614;48.522;9.206;2024-02-26T03:34:49;8.43;;;7.93;;
16994;SDS011;8614;48.522;9.206;2024-02-26T03:37:19;8.33;;;7.83;;
16994;SDS011;8614;48.522;9.206;2024-02-26T03:39:47;8.40;;;7.90;;
16994;SDS011;8614;48.522;9.206;2024-02-26T03:42:14;8.60;;;8.10;;
16994;SDS011;8614;48.522;9.206;2024-02-26T03:44:41;8.70;;;8.20;;
16994;SDS011;8614;48.522;9.206;2024-02-26T03:47:09;8.50;;;8.00;;
16994;SDS011;8614;48.522;9.206;2024-02-26T03:49:36;8.83;;;8.30;;
16994;SDS011;8614;48.522;9.206;2024-02-26T03:52:03;8.57;;;8.07;;
16994;SDS011;8614;48.522;9.206;2024-02-26T03:54:30;8.50;;;8.00;;
16994;SDS011;8614;48.522;9.206;2024-02-26T03:56:57;8.60;;;8.10;;
16994;SDS011;8614;48.522;9.206;2024-02-26T03:59:24;8.40;;;7.90;;
16994;SDS011;8614;48.522;9.206;2024-02-26T04:01:51;8.57;;;8.07;;
16994;SDS011;8614;48.522;9.206;2024-02-26T04:04:19;8.53;;;8.03;;
16994;SDS011;8614;48.522;9.206;2024-02-26T04:06:46;8.80;;;8.20;;
16994;SDS011;8614;48.522;9.206;2024-02-26T04:09:13;8.50;;;7.90;;
16994;SDS011;8614;48.522;9.206;2024-02-26T04:11:40;8.40;;;7.90;;
16994;SDS011;8614;48.522;9.206;2024-02-26T04:14:08;8.20;;;7.70;;
16994;SDS011;8614;48.522;9.206;2024-02-26T04:16:37;8.47;;;7.97;;
16994;SDS011;8614;48.522;9.206;2024-02-26T04:19:03;8.50;;;7.90;;
16994;SDS011;8614;48.522;9.206;2024-02-26T04:21:33;8.50;;;7.90;;
16994;SDS011;8614;48.522;9.206;2024-02-26T04:24:00;8.60;;;8.03;;
16994;SDS011;8614;48.522;9.206;2024-02-26T04:26:27;8.40;;;7.90;;
16994;SDS011;8614;48.522;9.206;2024-02-26T04:28:54;8.43;;;7.93;;
16994;SDS011;8614;48.522;9.206;2024-02-26T04:31:20;8.03;;;7.53;;
16994;SDS011;8614;48.522;9.206;2024-02-26T04:33:47;8.80;;;8.10;;
16994;SDS011;8614;48.522;9.206;2024-02-26T04:36:14;8.20;;;7.70;;
16994;SDS011;8614;48.522;9.206;2024-02-26T04:38:42;8.53;;;7.83;;
16994;SDS011;8614;48.522;9.206;2024-02-26T04:41:09;8.10;;;7.60;;
16994;SDS011;8614;48.522;9.206;2024-02-26T04:43:37;8.50;;;8.00;;
16994;SDS011;8614;48.522;9.206;2024-02-26T04:46:06;8.50;;;8.00;;
16994;SDS011;8614;48.522;9.206;2024-02-26T04:48:34;7.80;;;7.30;;
16994;SDS011;8614;48.522;9.206;2024-02-26T04:51:01;8.00;;;7.50;;
16994;SDS011;8614;48.522;9.206;2024-02-26T04:53:28;8.33;;;7.73;;
16994;SDS011;8614;48.522;9.206;2024-02-26T04:55:56;8.87;;;8.17;;
16994;SDS011;8614;48.522;9.206;2024-02-26T04:58:23;9.20;;;8.40;;
16994;SDS011;8614;48.522;9.206;2024-02-26T05:00:50;8.90;;;8.30;;
16994;SDS011;8614;48.522;9.206;2024-02-26T05:03:17;8.40;;;7.90;;
16994;SDS011;8614;48.522;9.206;2024-02-26T05:05:43;8.37;;;7.87;;
16994;SDS011;8614;48.522;9.206;2024-02-26T05:08:10;8.70;;;8.13;;
16994;SDS011;8614;48.522;9.206;2024-02-26T05:10:37;8.53;;;8.00;;
16994;SDS011;8614;48.522;9.206;2024-02-26T05:13:07;8.50;;;7.90;;
16994;SDS011;8614;48.522;9.206;2024-02-26T05:15:34;8.43;;;7.90;;
16994;SDS011;8614;48.522;9.206;2024-02-26T05:18:01;7.93;;;7.53;;
16994;SDS011;8614;48.522;9.206;2024-02-26T05:20:28;8.70;;;8.10;;
16994;SDS011;8614;48.522;9.206;2024-02-26T05:22:56;8.50;;;8.00;;
16994;SDS011;8614;48.522;9.206;2024-02-26T05:25:24;8.70;;;8.20;;
16994;SDS011;8614;48.522;9.206;2024-02-26T05:27:50;8.70;;;8.20;;
16994;SDS011;8614;48.522;9.206;2024-02-26T05:30:19;9.00;;;8.50;;
16994;SDS011;8614;48.522;9.206;2024-02-26T05:32:45;8.40;;;7.90;;
16994;SDS011;8614;48.522;9.206;2024-02-26T05:35:12;8.53;;;8.03;;
16994;SDS011;8614;48.522;9.206;2024-02-26T05:37:40;8.40;;;7.90;;
16994;SDS011;8614;48.522;9.206;2024-02-26T05:40:07;8.93;;;8.40;;
16994;SDS011;8614;48.522;9.206;2024-02-26T05:42:34;8.40;;;7.90;;
16994;SDS011;8614;48.522;9.206;2024-02-26T05:45:01;9.17;;;8.40;;
16994;SDS011;8614;48.522;9.206;2024-02-26T05:47:32;8.87;;;8.27;;
16994;SDS011;8614;48.522;9.206;2024-02-26T05:49:59;9.53;;;8.93;;
16994;SDS011;8614;48.522;9.206;2024-02-26T05:52:26;9.40;;;8.80;;
16994;SDS011;8614;48.522;9.206;2024-02-26T05:54:54;9.37;;;8.77;;
16994;SDS011;8614;48.522;9.206;2024-02-26T05:57:21;9.10;;;8.50;;
16994;SDS011;8614;48.522;9.206;2024-02-26T05:59:48;9.00;;;8.40;;
16994;SDS011;8614;48.522;9.206;2024-02-26T06:02:14;9.60;;;9.00;;
16994;SDS011;8614;48.522;9.206;2024-02-26T06:04:42;9.03;;;8.27;;
16994;SDS011;8614;48.522;9.206;2024-02-26T06:07:09;9.80;;;9.00;;
16994;SDS011;8614;48.522;9.206;2024-02-26T06:09:36;9.23;;;8.63;;
16994;SDS011;8614;48.522;9.206;2024-02-26T06:12:03;9.00;;;8.40;;
16994;SDS011;8614;48.522;9.206;2024-02-26T06:14:30;9.30;;;8.70;;
16994;SDS011;8614;48.522;9.206;2024-02-26T06:16:57;9.40;;;8.80;;
16994;SDS011;8614;48.522;9.206;2024-02-26T06:19:23;10.27;;;9.47;;
16994;SDS011;8614;48.522;9.206;2024-02-26T06:21:51;10.10;;;9.10;;
16994;SDS011;8614;48.522;9.206;2024-02-26T06:24:18;9.40;;;8.80;;
16994;SDS011;8614;48.522;9.206;2024-02-26T06:26:45;10.33;;;9.63;;
16994;SDS011;8614;48.522;9.206;2024-02-26T06:29:13;10.10;;;9.40;;
16994;SDS011;8614;48.522;9.206;2024-02-26T06:31:39;10.27;;;9.50;;
16994;SDS011;8614;48.522;9.206;2024-02-26T06:34:06;9.90;;;9.20;;
16994;SDS011;8614;48.522;9.206;2024-02-26T06:36:33;9.80;;;9.20;;
16994;SDS011;8614;48.522;9.206;2024-02-26T06:39:01;10.00;;;9.20;;
16994;SDS011;8614;48.522;9.206;2024-02-26T06:41:30;9.93;;;9.20;;
16994;SDS011;8614;48.522;9.206;2024-02-26T06:43:57;9.50;;;8.80;;
16994;SDS011;8614;48.522;9.206;2024-02-26T06:46:24;10.37;;;9.63;;
16994;SDS011;8614;48.522;9.206;2024-02-26T06:48:51;10.40;;;9.70;;
16994;SDS011;8614;48.522;9.206;2024-02-26T06:51:18;10.30;;;9.70;;
16994;SDS011;8614;48.522;9.206;2024-02-26T06:53:45;9.60;;;9.00;;
16994;SDS011;8614;48.522;9.206;2024-02-26T06:56:13;9.80;;;9.20;;
16994;SDS011;8614;48.522;9.206;2024-02-26T06:58:40;10.30;;;9.60;;
16994;SDS011;8614;48.522;9.206;2024-02-26T07:01:07;10.27;;;9.67;;
16994;SDS011;8614;48.522;9.206;2024-02-26T07:03:34;10.57;;;9.87;;
16994;SDS011;8614;48.522;9.206;2024-02-26T07:06:01;10.30;;;9.60;;
16994;SDS011;8614;48.522;9.206;2024-02-26T07:08:29;10.10;;;9.50;;
16994;SDS011;8614;48.522;9.206;2024-02-26T07:10:55;10.13;;;9.53;;
16994;SDS011;8614;48.522;9.206;2024-02-26T07:13:23;10.87;;;10.10;;
16994;SDS011;8614;48.522;9.206;2024-02-26T07:15:50;10.07;;;9.47;;
16994;SDS011;8614;48.522;9.206;2024-02-26T07:18:17;10.47;;;9.67;;
16994;SDS011;8614;48.522;9.206;2024-02-26T07:20:46;9.67;;;9.07;;
16994;SDS011;8614;48.522;9.206;2024-02-26T07:23:13;10.17;;;9.50;;
16994;SDS011;8614;48.522;9.206;2024-02-26T07:25:39;10.50;;;9.70;;
16994;SDS011;8614;48.522;9.206;2024-02-26T07:28:07;10.50;;;9.80;;
16994;SDS011;8614;48.522;9.206;2024-02-26T07:30:35;10.50;;;9.80;;
16994;SDS011;8614;48.522;9.206;2024-02-26T07:33:02;10.27;;;9.57;;
16994;SDS011;8614;48.522;9.206;2024-02-26T07:35:29;10.23;;;9.63;;
16994;SDS011;8614;48.522;9.206;2024-02-26T07:37:57;10.80;;;10.00;;
16994;SDS011;8614;48.522;9.206;2024-02-26T07:40:24;10.47;;;9.80;;
16994;SDS011;8614;48.522;9.206;2024-02-26T07:42:51;10.10;;;9.40;;
16994;SDS011;8614;48.522;9.206;2024-02-26T07:45:18;9.93;;;9.23;;
16994;SDS011;8614;48.522;9.206;2024-02-26T07:47:47;9.60;;;9.00;;
16994;SDS011;8614;48.522;9.206;2024-02-26T07:50:14;9.50;;;8.80;;
16994;SDS011;8614;48.522;9.206;2024-02-26T07:52:41;10.83;;;10.10;;
16994;SDS011;8614;48.522;9.206;2024-02-26T07:55:08;10.00;;;9.30;;
16994;SDS011;8614;48.522;9.206;2024-02-26T07:57:35;9.70;;;9.10;;
16994;SDS011;8614;48.522;9.206;2024-02-26T08:00:01;10.17;;;9.47;;
16994;SDS011;8614;48.522;9.206;2024-02-26T08:02:29;9.70;;;9.10;;
16994;SDS011;8614;48.522;9.206;2024-02-26T08:04:58;9.70;;;9.10;;
16994;SDS011;8614;48.522;9.206;2024-02-26T08:07:24;9.80;;;9.10;;
16994;SDS011;8614;48.522;9.206;2024-02-26T08:09:51;9.13;;;8.53;;
16994;SDS011;8614;48.522;9.206;2024-02-26T08:12:18;9.27;;;8.67;;
16994;SDS011;8614;48.522;9.206;2024-02-26T08:14:45;9.43;;;8.73;;
16994;SDS011;8614;48.522;9.206;2024-02-26T08:17:12;9.30;;;8.63;;
16994;SDS011;8614;48.522;9.206;2024-02-26T08:19:39;10.10;;;9.40;;
16994;SDS011;8614;48.522;9.206;2024-02-26T08:22:07;10.13;;;9.50;;
16994;SDS011;8614;48.522;9.206;2024-02-26T08:24:35;10.10;;;9.40;;
16994;SDS011;8614;48.522;9.206;2024-02-26T08:27:02;10.17;;;9.37;;
16994;SDS011;8614;48.522;9.206;2024-02-26T08:29:29;10.23;;;9.40;;
16994;SDS011;8614;48.522;9.206;2024-02-26T08:31:56;9.77;;;9.10;;
16994;SDS011;8614;48.522;9.206;2024-02-26T08:34:22;10.30;;;9.60;;
16994;SDS011;8614;48.522;9.206;2024-02-26T08:36:49;10.30;;;9.40;;
16994;SDS011;8614;48.522;9.206;2024-02-26T08:39:17;10.30;;;9.50;;
16994;SDS011;8614;48.522;9.206;2024-02-26T08:41:45;10.43;;;9.63;;
16994;SDS011;8614;48.522;9.206;2024-02-26T08:44:12;10.80;;;10.00;;
16994;SDS011;8614;48.522;9.206;2024-02-26T08:46:39;10.70;;;9.90;;
16994;SDS011;8614;48.522;9.206;2024-02-26T08:49:05;10.50;;;9.70;;
16994;SDS011;8614;48.522;9.206;2024-02-26T08:51:32;9.77;;;9.17;;
16994;SDS011;8614;48.522;9.206;2024-02-26T08:53:59;10.47;;;9.60;;
16994;SDS011;8614;48.522;9.206;2024-02-26T08:56:27;10.50;;;9.80;;
16994;SDS011;8614;48.522;9.206;2024-02-26T08:58:54;10.43;;;9.73;;
16994;SDS011;8614;48.522;9.206;2024-02-26T09:01:22;10.03;;;9.33;;
16994;SDS011;8614;48.522;9.206;2024-02-26T09:03:49;10.10;;;9.40;;
16994;SDS011;8614;48.522;9.206;2024-02-26T09:06:16;9.83;;;9.10;;
16994;SDS011;8614;48.522;9.206;2024-02-26T09:08:43;9.83;;;9.13;;
16994;SDS011;8614;48.522;9.206;2024-02-26T09:11:09;10.40;;;9.60;;
16994;SDS011;8614;48.522;9.206;2024-02-26T09:13:37;10.27;;;9.47;;
16994;SDS011;8614;48.522;9.206;2024-02-26T09:16:04;10.20;;;9.47;;
16994;SDS011;8614;48.522;9.206;2024-02-26T09:18:32;10.20;;;9.30;;
16994;SDS011;8614;48.522;9.206;2024-02-26T09:20:59;10.93;;;10.07;;
16994;SDS011;8614;48.522;9.206;2024-02-26T09:23:25;10.87;;;10.07;;
16994;SDS011;8614;48.522;9.206;2024-02-26T09:25:52;11.13;;;10.33;;
16994;SDS011;8614;48.522;9.206;2024-02-26T09:28:19;11.27;;;10.17;;
16994;SDS011;8614;48.522;9.206;2024-02-26T09:30:47;11.00;;;10.10;;
16994;SDS011;8614;48.522;9.206;2024-02-26T09:33:15;10.77;;;10.07;;
16994;SDS011;8614;48.522;9.206;2024-02-26T09:35:42;11.40;;;10.50;;
16994;SDS011;8614;48.522;9.206;2024-02-26T09:38:09;10.90;;;10.10;;
16994;SDS011;8614;48.522;9.206;2024-02-26T09:40:35;10.23;;;9.53;;
16994;SDS011;8614;48.522;9.206;2024-02-26T09:43:03;10.43;;;9.63;;
16994;SDS011;8614;48.522;9.206;2024-02-26T09:45:33;10.90;;;9.90;;
16994;SDS011;8614;48.522;9.206;2024-02-26T09:48:02;10.63;;;9.87;;
16994;SDS011;8614;48.522;9.206;2024-02-26T09:50:30;9.17;;;8.47;;
16994;SDS011;8614;48.522;9.206;2024-02-26T09:52:57;11.30;;;10.40;;
16994;SDS011;8614;48.522;9.206;2024-02-26T09:55:27;10.60;;;9.80;;
16994;SDS011;8614;48.522;9.206;2024-02-26T09:57:54;5.33;;;4.00;;
16994;SDS011;8614;48.522;9.206;2024-02-26T10:00:23;6.10;;;5.60;;
16994;SDS011;8614;48.522;9.206;2024-02-26T10:02:57;5.40;;;4.90;;
16994;SDS011;8614;48.522;9.206;2024-02-26T10:05:30;6.50;;;4.47;;
16994;SDS011;8614;48.522;9.206;2024-02-26T10:07:59;4.70;;;3.60;;
16994;SDS011;8614;48.522;9.206;2024-02-26T10:10:26;9.60;;;8.90;;
16994;SDS011;8614;48.522;9.206;2024-02-26T10:12:55;9.90;;;9.20;;
16994;SDS011;8614;48.522;9.206;2024-02-26T10:15:21;10.80;;;10.10;;
16994;SDS011;8614;48.522;9.206;2024-02-26T10:17:48;9.10;;;8.50;;
16994;SDS011;8614;48.522;9.206;2024-02-26T10:20:15;7.23;;;6.70;;
16994;SDS011;8614;48.522;9.206;2024-02-26T10:22:45;9.60;;;8.90;;
16994;SDS011;8614;48.522;9.206;2024-02-26T10:25:11;8.30;;;7.67;;
16994;SDS011;8614;48.522;9.206;2024-02-26T10:27:40;9.50;;;8.90;;
16994;SDS011;8614;48.522;9.206;2024-02-26T10:30:15;9.40;;;8.63;;
16994;SDS011;8614;48.522;9.206;2024-02-26T10:32:43;9.20;;;8.60;;
16994;SDS011;8614;48.522;9.206;2024-02-26T10:35:11;9.73;;;9.03;;
16994;SDS011;8614;48.522;9.206;2024-02-26T10:37:39;9.80;;;9.10;;
16994;SDS011;8614;48.522;9.206;2024-02-26T10:40:08;10.00;;;9.30;;
16994;SDS011;8614;48.522;9.206;2024-02-26T10:42:36;9.80;;;9.10;;
16994;SDS011;8614;48.522;9.206;2024-02-26T10:45:04;10.20;;;9.50;;
16994;SDS011;8614;48.522;9.206;2024-02-26T10:47:31;10.73;;;9.93;;
16994;SDS011;8614;48.522;9.206;2024-02-26T10:49:59;11.27;;;10.37;;
16994;SDS011;8614;48.522;9.206;2024-02-26T10:52:27;10.90;;;10.00;;
16994;SDS011;8614;48.522;9.206;2024-02-26T10:54:58;10.73;;;10.03;;
16994;SDS011;8614;48.522;9.206;2024-02-26T10:57:28;10.67;;;9.87;;
16994;SDS011;8614;48.522;9.206;2024-02-26T10:59:58;10.67;;;9.77;;
16994;SDS011;8614;48.522;9.206;2024-02-26T11:02:26;9.60;;;9.00;;
16994;SDS011;8614;48.522;9.206;2024-02-26T11:04:53;10.97;;;10.17;;
16994;SDS011;8614;48.522;9.206;2024-02-26T11:07:21;10.73;;;9.73;;
16994;SDS011;8614;48.522;9.206;2024-02-26T11:09:48;10.40;;;9.60;;
16994;SDS011;8614;48.522;9.206;2024-02-26T11:12:17;10.70;;;10.00;;
16994;SDS011;8614;48.522;9.206;2024-02-26T11:14:46;10.60;;;9.70;;
16994;SDS011;8614;48.522;9.206;2024-02-26T11:17:16;10.80;;;9.87;;
16994;SDS011;8614;48.522;9.206;2024-02-26T11:19:46;10.50;;;9.80;;
16994;SDS011;8614;48.522;9.206;2024-02-26T11:22:14;10.40;;;9.70;;
16994;SDS011;8614;48.522;9.206;2024-02-26T11:24:41;10.20;;;9.50;;
16994;SDS011;8614;48.522;9.206;2024-02-26T11:27:09;10.40;;;9.70;;
16994;SDS011;8614;48.522;9.206;2024-02-26T11:29:38;10.27;;;9.57;;
16994;SDS011;8614;48.522;9.206;2024-02-26T11:32:09;10.00;;;9.20;;
16994;SDS011;8614;48.522;9.206;2024-02-26T11:34:36;10.07;;;9.37;;
16994;SDS011;8614;48.522;9.206;2024-02-26T11:37:10;6.53;;;5.87;;
16994;SDS011;8614;48.522;9.206;2024-02-26T11:39:37;3.80;;;3.40;;
16994;SDS011;8614;48.522;9.206;2024-02-26T11:42:06;8.67;;;8.07;;
16994;SDS011;8614;48.522;9.206;2024-02-26T11:44:33;10.20;;;9.40;;
16994;SDS011;8614;48.522;9.206;2024-02-26T11:47:10;9.80;;;9.20;;
16994;SDS011;8614;48.522;9.206;2024-02-26T11:49:38;10.60;;;9.90;;
16994;SDS011;8614;48.522;9.206;2024-02-26T11:52:05;9.37;;;8.47;;
16994;SDS011;8614;48.522;9.206;2024-02-26T11:54:38;9.50;;;8.80;;
16994;SDS011;8614;48.522;9.206;2024-02-26T11:57:19;9.87;;;9.07;;
16994;SDS011;8614;48.522;9.206;2024-02-26T11:59:50;10.60;;;9.80;;
16994;SDS011;8614;48.522;9.206;2024-02-26T12:02:39;9.40;;;8.80;;
16994;SDS011;8614;48.522;9.206;2024-02-26T12:05:07;8.20;;;7.60;;
16994;SDS011;8614;48.522;9.206;2024-02-26T12:07:39;9.20;;;8.43;;
16994;SDS011;8614;48.522;9.206;2024-02-26T12:10:13;9.20;;;8.50;;
16994;SDS011;8614;48.522;9.206;2024-02-26T12:12:47;8.60;;;8.10;;
16994;SDS011;8614;48.522;9.206;2024-02-26T12:15:15;9.97;;;9.37;;
16994;SDS011;8614;48.522;9.206;2024-02-26T12:17:49;3.10;;;2.80;;
16994;SDS011;8614;48.522;9.206;2024-02-26T12:20:17;3.93;;;3.53;;
16994;SDS011;8614;48.522;9.206;2024-02-26T12:22:45;5.60;;;5.20;;
16994;SDS011;8614;48.522;9.206;2024-02-26T12:25:13;3.10;;;2.80;;
16994;SDS011;8614;48.522;9.206;2024-02-26T12:27:40;8.60;;;7.77;;
16994;SDS011;8614;48.522;9.206;2024-02-26T12:30:07;9.60;;;8.90;;
16994;SDS011;8614;48.522;9.206;2024-02-26T12:32:35;8.80;;;8.20;;
16994;SDS011;8614;48.522;9.206;2024-02-26T12:35:04;9.10;;;8.50;;
16994;SDS011;8614;48.522;9.206;2024-02-26T12:37:32;8.60;;;8.00;;
16994;SDS011;8614;48.522;9.206;2024-02-26T12:40:01;9.50;;;8.77;;
16994;SDS011;8614;48.522;9.206;2024-02-26T12:42:29;9.17;;;8.37;;
16994;SDS011;8614;48.522;9.206;2024-02-26T12:44:57;9.27;;;8.57;;
16994;SDS011;8614;48.522;9.206;2024-02-26T12:47:24;9.03;;;8.50;;
16994;SDS011;8614;48.522;9.206;2024-02-26T12:49:51;4.50;;;3.10;;
16994;SDS011;8614;48.522;9.206;2024-02-26T12:52:19;3.87;;;3.17;;
16994;SDS011;8614;48.522;9.206;2024-02-26T12:54:47;3.20;;;2.90;;
16994;SDS011;8614;48.522;9.206;2024-02-26T12:57:15;3.20;;;3.00;;
16994;SDS011;8614;48.522;9.206;2024-02-26T12:59:42;5.03;;;3.30;;
16994;SDS011;8614;48.522;9.206;2024-02-26T13:02:09;2.83;;;2.63;;
16994;SDS011;8614;48.522;9.206;2024-02-26T13:04:36;3.00;;;2.70;;
16994;SDS011;8614;48.522;9.206;2024-02-26T13:07:04;2.97;;;2.77;;
16994;SDS011;8614;48.522;9.206;2024-02-26T13:09:33;2.67;;;2.47;;
16994;SDS011;8614;48.522;9.206;2024-02-26T13:12:03;3.37;;;2.90;;
16994;SDS011;8614;48.522;9.206;2024-02-26T13:14:31;3.00;;;2.80;;
16994;SDS011;8614;48.522;9.206;2024-02-26T13:16:59;2.80;;;2.60;;
16994;SDS011;8614;48.522;9.206;2024-02-26T13:19:26;2.87;;;2.50;;
16994;SDS011;8614;48.522;9.206;2024-02-26T13:21:54;3.10;;;2.80;;
16994;SDS011;8614;48.522;9.206;2024-02-26T13:24:21;3.17;;;2.83;;
16994;SDS011;8614;48.522;9.206;2024-02-26T13:26:55;2.87;;;2.63;;
16994;SDS011;8614;48.522;9.206;2024-02-26T13:29:22;2.70;;;2.50;;
16994;SDS011;8614;48.522;9.206;2024-02-26T13:31:53;2.70;;;2.50;;
16994;SDS011;8614;48.522;9.206;2024-02-26T13:34:24;4.60;;;4.20;;
16994;SDS011;8614;48.522;9.206;2024-02-26T13:36:52;7.87;;;7.27;;
16994;SDS011;8614;48.522;9.206;2024-02-26T13:39:22;8.13;;;7.63;;
16994;SDS011;8614;48.522;9.206;2024-02-26T13:41:50;3.80;;;2.60;;
16994;SDS011;8614;48.522;9.206;2024-02-26T13:44:19;3.70;;;2.53;;
16994;SDS011;8614;48.522;9.206;2024-02-26T13:46:46;8.53;;;7.93;;
16994;SDS011;8614;48.522;9.206;2024-02-26T13:49:14;9.00;;;8.30;;
16994;SDS011;8614;48.522;9.206;2024-02-26T13:51:41;8.40;;;7.90;;
16994;SDS011;8614;48.522;9.206;2024-02-26T13:54:08;8.27;;;7.77;;
16994;SDS011;8614;48.522;9.206;2024-02-26T13:56:35;8.67;;;8.13;;
16994;SDS011;8614;48.522;9.206;2024-02-26T13:59:02;9.03;;;8.43;;
16994;SDS011;8614;48.522;9.206;2024-02-26T14:01:33;8.10;;;7.50;;
16994;SDS011;8614;48.522;9.206;2024-02-26T14:03:59;6.20;;;5.70;;
16994;SDS011;8614;48.522;9.206;2024-02-26T14:06:29;8.40;;;7.90;;
16994;SDS011;8614;48.522;9.206;2024-02-26T14:08:57;8.17;;;7.67;;
16994;SDS011;8614;48.522;9.206;2024-02-26T14:11:24;8.43;;;7.83;;
16994;SDS011;8614;48.522;9.206;2024-02-26T14:13:50;2.33;;;2.13;;
16994;SDS011;8614;48.522;9.206;2024-02-26T14:16:18;2.30;;;2.20;;
16994;SDS011;8614;48.522;9.206;2024-02-26T14:18:46;2.40;;;2.20;;
16994;SDS011;8614;48.522;9.206;2024-02-26T14:21:13;2.50;;;2.30;;
16994;SDS011;8614;48.522;9.206;2024-02-26T14:23:40;2.40;;;2.20;;
16994;SDS011;8614;48.522;9.206;2024-02-26T14:26:09;3.20;;;2.23;;
16994;SDS011;8614;48.522;9.206;2024-02-26T14:28:36;2.70;;;2.50;;
16994;SDS011;8614;48.522;9.206;2024-02-26T14:31:03;2.40;;;2.20;;
16994;SDS011;8614;48.522;9.206;2024-02-26T14:33:32;2.10;;;2.00;;
16994;SDS011;8614;48.522;9.206;2024-02-26T14:36:00;3.50;;;2.50;;
16994;SDS011;8614;48.522;9.206;2024-02-26T14:38:27;3.73;;;2.60;;
16994;SDS011;8614;48.522;9.206;2024-02-26T14:40:54;2.90;;;2.57;;
16994;SDS011;8614;48.522;9.206;2024-02-26T14:43:20;2.50;;;2.30;;
16994;SDS011;8614;48.522;9.206;2024-02-26T14:45:47;3.40;;;3.10;;
16994;SDS011;8614;48.522;9.206;2024-02-26T14:48:14;8.73;;;8.13;;
16994;SDS011;8614;48.522;9.206;2024-02-26T14:50:41;7.90;;;7.30;;
16994;SDS011;8614;48.522;9.206;2024-02-26T14:53:09;8.80;;;8.30;;
16994;SDS011;8614;48.522;9.206;2024-02-26T14:55:35;8.80;;;8.20;;
16994;SDS011;8614;48.522;9.206;2024-02-26T14:58:03;8.57;;;8.07;;
16994;SDS011;8614;48.522;9.206;2024-02-26T15:00:30;8.30;;;7.80;;